Brickeys, Arkansas
Current Conditions -  °F | °C
As of 10:15 PM on Saturday 25 Oct 2014 (Local Time) from KUTA Reporting Station
Clear Clear  
Wind Chill: 66°   Ceiling: Unl
Heat Index: 66°   Visibility: 10mi
Dew Point: 61°   Wind: 3mph
Humidity: 83%   Direction: 220°SW
Pressure: 30.05"   Gusts: NA
Location:  34.86°N, 90.59°W
Report Text: KUTA 260315Z AUTO 22003KT 10SM CLR 19/16 A3005 RMK AO2
Loading
Personal Weather Stations






























Interactive Weather Map
Tropical Storm Tracking
New forecast layout! Learn more

10-Day Weather Forecast

Advertisements
Track Severe Weather on mobile